createdAt,value
2022-07-30T07:04:47.245Z,25.6
2022-07-30T07:10:51.849Z,25.6
2022-07-30T07:16:43.501Z,25.7
2022-07-30T07:23:09.104Z,25.7
2022-07-30T07:29:40.141Z,25.7
2022-07-30T07:36:23.032Z,25.7
2022-07-30T07:42:21.361Z,25.8
2022-07-30T07:48:08.014Z,25.8
2022-07-30T07:53:55.840Z,25.8
2022-07-30T07:59:56.146Z,25.8
2022-07-30T08:05:06.971Z,25.8
2022-07-30T08:11:24.058Z,25.9
2022-07-30T08:17:54.355Z,25.9
2022-07-30T08:23:37.797Z,25.9
2022-07-30T08:29:50.090Z,25.9
2022-07-30T08:35:32.923Z,25.9
2022-07-30T08:41:28.929Z,25.9
2022-07-30T08:47:21.208Z,26
2022-07-30T08:53:04.484Z,26
2022-07-30T08:58:34.628Z,26
2022-07-30T09:04:57.599Z,26
2022-07-30T09:10:22.224Z,26.1
2022-07-30T09:16:10.744Z,26.1
2022-07-30T09:21:33.120Z,26.1
2022-07-30T09:27:11.615Z,26.1
2022-07-30T09:32:51.079Z,26.1
2022-07-30T09:38:29.261Z,26.1
2022-07-30T09:44:46.803Z,26.1
2022-07-30T09:50:13.108Z,26.2
2022-07-30T10:06:16.675Z,26.3
2022-07-30T10:12:26.731Z,26.3
2022-07-30T10:18:15.497Z,26.2
2022-07-30T10:25:48.761Z,26.2
2022-07-30T10:32:47.192Z,26.2
2022-07-30T10:39:26.268Z,26.2
2022-07-30T10:45:33.681Z,26.3
2022-07-30T10:51:50.775Z,26.3
2022-07-30T10:57:48.511Z,26.2
2022-07-30T11:04:14.810Z,26.2
2022-07-30T11:10:38.278Z,26.3
2022-07-30T11:17:18.741Z,26.3
2022-07-30T11:23:53.460Z,26.3
2022-07-30T11:30:24.424Z,26.3
2022-07-30T11:37:19.361Z,26.3
